This is the latest recevied weather packets stored in our database for station/object W2OBX. If no packets are shown the sender has not sent any weather packets the latest 1 day(s).
| Time | Temp. | Humidity | Pressure | Rain* | Wind** | Luminosity | Snow |
|---|---|---|---|---|---|---|---|
| 1778002548 | 23.89° C | 43% | 1014.7 hPa | 0 mm | 0.45 m/s, 120° | 155 W/m² | - |
| 1778002244 | 23.89° C | 46% | 1014.7 hPa | 0 mm | 0.45 m/s, 117° | 224 W/m² | - |
| 1778001942 | 23.89° C | 44% | 1015 hPa | 0 mm | 1.79 m/s, 171° | 321 W/m² | - |
| 1778001639 | 23.89° C | 46% | 1015.1 hPa | 0 mm | 1.34 m/s, 133° | 356 W/m² | - |
| 1778001333 | 23.89° C | 44% | 1015.2 hPa | 0 mm | 1.34 m/s, 129° | 390 W/m² | - |
| 1778001031 | 23.89° C | 41% | 1015.4 hPa | 0 mm | 0.45 m/s, 120° | 391 W/m² | - |
| 1778000728 | 23.89° C | 45% | 1015.2 hPa | 0 mm | 0.45 m/s, 128° | 261 W/m² | - |
| 1778000424 | 23.89° C | 45% | 1015.5 hPa | 0 mm | 0.45 m/s, 71° | 337 W/m² | - |
| 1778000119 | 23.89° C | 47% | 1015.7 hPa | 0 mm | 0 m/s | 144 W/m² | - |
| 1777999815 | 23.89° C | 47% | 1015.7 hPa | 0 mm | 0.89 m/s, 117° | 195 W/m² | - |
| 1777999511 | 23.33° C | 48% | 1015.5 hPa | 0 mm | 2.24 m/s, 143° | 132 W/m² | - |
| 1777999209 | 22.78° C | 49% | 1015.6 hPa | 0 mm | 1.34 m/s, 144° | 108 W/m² | - |
| 1777998907 | 23.33° C | 48% | 1015.5 hPa | 0 mm | 0.45 m/s, 116° | 110 W/m² | - |
| 1777998603 | 23.33° C | 44% | 1015.4 hPa | 0 mm | 1.79 m/s, 154° | 104 W/m² | - |
| 1777998297 | 23.33° C | 49% | 1015.4 hPa | 0 mm | 0.89 m/s, 131° | 119 W/m² | - |
| 1777997994 | 22.78° C | 45% | 1015.4 hPa | 0 mm | 0.45 m/s, 135° | 108 W/m² | - |
| 1777997690 | 22.78° C | 50% | 1015.5 hPa | 0 mm | 0.45 m/s, 153° | 105 W/m² | - |
| 1777997388 | 22.78° C | 46% | 1015.4 hPa | 0 mm | 0.45 m/s, 123° | 103 W/m² | - |
| 1777997086 | 22.78° C | 46% | 1015.5 hPa | 0 mm | 0.45 m/s, 117° | 108 W/m² | - |
| 1777996782 | 22.78° C | 46% | 1015.7 hPa | 0 mm | 0.45 m/s, 99° | 108 W/m² | - |
| 1777996479 | 22.22° C | 48% | 1015.5 hPa | 0 mm | 1.34 m/s, 177° | 112 W/m² | - |
| 1777996176 | 22.22° C | 47% | 1015.6 hPa | 0 mm | 0.45 m/s, 116° | 106 W/m² | - |
| 1777995872 | 22.22° C | 50% | 1015.7 hPa | 0 mm | 0.89 m/s, 124° | 98 W/m² | - |
| 1777995568 | 22.78° C | 45% | 1015.8 hPa | 0 mm | 0.89 m/s, 138° | 101 W/m² | - |
| 1777995266 | 22.78° C | 47% | 1015.8 hPa | 0 mm | 1.79 m/s, 164° | 95 W/m² | - |
* Rain latest hour (hover to see other rain measurements)
** Current wind speed in m/s (hover to see current wind gust speed)